Time;durP1;ratioP1;P1;durP2;ratioP2;P2;SDS_P1;SDS_P2;PMS_P1;PMS_P2;Temp;Humidity;BMP_temperature;BMP_pressure;BME280_temperature;BME280_humidity;BME280_pressure;Samples;Min_cycle;Max_cycle;Signal;HPM_P1;HPM_P2
2022/07/19 00:01:38;;;;;;;8.18;5.93;;;;;;;;;;4993637;28;20091;-78
2022/07/19 00:04:03;;;;;;;8.65;6.20;;;;;;;;;;4992536;28;20509;-80
2022/07/19 00:06:29;;;;;;;7.00;5.30;;;;;;;;;;4997289;28;20045;-80
2022/07/19 00:08:54;;;;;;;9.48;5.72;;;;;;;;;;5020230;28;20111;-79
2022/07/19 00:11:22;;;;;;;10.80;6.82;;;;;;;;;;5014795;28;20056;-79
2022/07/19 00:13:47;;;;;;;10.55;5.80;;;;;;;;;;5020111;28;20033;-76
2022/07/19 00:16:13;;;;;;;7.78;5.78;;;;;;;;;;5014684;28;20037;-77
2022/07/19 00:18:38;;;;;;;12.13;6.32;;;;;;;;;;5018851;28;20044;-76
2022/07/19 00:21:03;;;;;;;8.85;5.65;;;;;;;;;;5016467;28;24189;-76
2022/07/19 00:23:28;;;;;;;8.50;6.47;;;;;;;;;;5022558;28;20017;-79
2022/07/19 00:25:54;;;;;;;11.68;6.53;;;;;;;;;;5017737;28;20029;-77
2022/07/19 00:28:19;;;;;;;11.63;6.95;;;;;;;;;;5017188;28;20033;-77
2022/07/19 00:30:44;;;;;;;9.23;6.05;;;;;;;;;;5019107;28;20025;-77
2022/07/19 00:33:09;;;;;;;10.90;6.60;;;;;;;;;;5018640;28;20152;-76
2022/07/19 00:35:38;;;;;;;11.43;6.85;;;;;;;;;;5000796;28;20025;-79
2022/07/19 00:38:07;;;;;;;9.50;6.25;;;;;;;;;;5022389;28;20492;-80
2022/07/19 00:40:32;;;;;;;11.57;7.57;;;;;;;;;;5004945;28;20026;-79
2022/07/19 00:42:58;;;;;;;10.27;7.32;;;;;;;;;;5016115;28;20492;-77
2022/07/19 00:45:23;;;;;;;13.88;8.40;;;;;;;;;;5018980;28;20056;-79
2022/07/19 00:47:48;;;;;;;10.88;7.95;;;;;;;;;;5016834;28;20067;-76
2022/07/19 00:50:14;;;;;;;10.88;8.50;;;;;;;;;;5002715;28;20025;-79
2022/07/19 00:52:40;;;;;;;11.07;7.75;;;;;;;;;;4999880;28;20355;-80
2022/07/19 00:55:06;;;;;;;11.70;9.23;;;;;;;;;;5002077;28;20029;-77
2022/07/19 00:57:32;;;;;;;10.55;8.57;;;;;;;;;;5013057;28;20033;-79
2022/07/19 00:59:57;;;;;;;13.52;8.70;;;;;;;;;;5018234;28;20033;-79
2022/07/19 01:02:23;;;;;;;14.27;10.10;;;;;;;;;;5015986;28;20567;-77
2022/07/19 01:04:48;;;;;;;12.00;9.02;;;;;;;;;;5004339;28;20017;-79
2022/07/19 01:07:13;;;;;;;12.65;9.30;;;;;;;;;;5014650;28;20493;-77
2022/07/19 01:09:40;;;;;;;13.18;9.00;;;;;;;;;;5020779;28;20389;-76
2022/07/19 01:12:06;;;;;;;12.68;9.75;;;;;;;;;;5015620;28;20079;-79
2022/07/19 01:14:32;;;;;;;16.58;10.45;;;;;;;;;;5004350;28;20134;-79
2022/07/19 01:16:58;;;;;;;13.90;10.15;;;;;;;;;;5018048;28;20151;-77
2022/07/19 01:19:24;;;;;;;13.70;10.10;;;;;;;;;;5020557;28;20478;-76
2022/07/19 01:21:49;;;;;;;18.60;10.13;;;;;;;;;;5015677;28;20041;-79
2022/07/19 01:24:14;;;;;;;13.57;9.82;;;;;;;;;;5020817;28;20262;-77
2022/07/19 01:26:39;;;;;;;16.50;9.95;;;;;;;;;;5002277;28;20036;-79
2022/07/19 01:29:07;;;;;;;14.65;10.52;;;;;;;;;;5019004;28;20028;-76
2022/07/19 01:31:33;;;;;;;15.88;9.85;;;;;;;;;;4997265;28;20127;-79
2022/07/19 01:33:58;;;;;;;14.77;10.50;;;;;;;;;;5016285;28;20122;-77
2022/07/19 01:36:23;;;;;;;12.85;10.30;;;;;;;;;;4997208;28;20859;-77
2022/07/19 01:38:48;;;;;;;13.80;9.50;;;;;;;;;;5018605;28;20029;-79
2022/07/19 01:41:13;;;;;;;14.55;9.85;;;;;;;;;;5017605;28;20022;-78
2022/07/19 01:43:39;;;;;;;9.88;8.80;;;;;;;;;;5018137;28;20047;-76
2022/07/19 01:46:05;;;;;;;14.98;9.23;;;;;;;;;;5018991;28;20028;-78
2022/07/19 01:48:30;;;;;;;15.88;10.13;;;;;;;;;;5002528;28;20029;-79
2022/07/19 01:50:55;;;;;;;15.73;9.10;;;;;;;;;;5018384;28;20350;-79
2022/07/19 01:53:21;;;;;;;12.25;8.48;;;;;;;;;;5013260;28;20437;-79
2022/07/19 01:55:46;;;;;;;13.07;9.45;;;;;;;;;;5005472;28;20025;-77
2022/07/19 01:58:11;;;;;;;13.25;9.68;;;;;;;;;;5012897;28;20103;-79
2022/07/19 02:00:36;;;;;;;11.90;9.80;;;;;;;;;;5002345;28;20382;-77
2022/07/19 02:03:02;;;;;;;12.90;9.90;;;;;;;;;;5012643;28;20361;-79
2022/07/19 02:05:27;;;;;;;10.23;8.27;;;;;;;;;;5019233;28;20293;-77
2022/07/19 02:07:52;;;;;;;14.10;8.82;;;;;;;;;;5016770;28;20180;-77
2022/07/19 02:10:18;;;;;;;15.05;8.73;;;;;;;;;;5018659;28;20057;-77
2022/07/19 02:12:43;;;;;;;13.38;8.70;;;;;;;;;;4997276;28;20029;-78
2022/07/19 02:15:08;;;;;;;16.40;9.45;;;;;;;;;;5019188;28;20058;-80
2022/07/19 02:17:34;;;;;;;10.52;8.05;;;;;;;;;;5017173;28;20029;-77
2022/07/19 02:19:59;;;;;;;11.80;8.30;;;;;;;;;;5023090;28;20041;-80
2022/07/19 02:22:24;;;;;;;9.98;7.63;;;;;;;;;;5020323;28;20389;-74
2022/07/19 02:24:50;;;;;;;11.20;8.10;;;;;;;;;;5021296;28;20040;-78
2022/07/19 02:27:15;;;;;;;11.02;7.70;;;;;;;;;;5024807;28;20650;-78
2022/07/19 02:29:40;;;;;;;10.10;7.38;;;;;;;;;;5019694;28;20044;-77
2022/07/19 02:32:06;;;;;;;9.65;7.57;;;;;;;;;;4997556;28;20556;-78
2022/07/19 02:34:31;;;;;;;13.25;8.20;;;;;;;;;;5017933;28;20508;-78
2022/07/19 02:36:56;;;;;;;11.20;7.90;;;;;;;;;;5019056;28;20518;-77
2022/07/19 02:39:22;;;;;;;10.33;6.90;;;;;;;;;;5019814;28;20014;-78
2022/07/19 02:41:47;;;;;;;12.18;7.97;;;;;;;;;;5002498;28;20294;-80
2022/07/19 02:44:12;;;;;;;12.03;7.77;;;;;;;;;;5019120;28;20025;-78
2022/07/19 02:46:37;;;;;;;11.02;7.78;;;;;;;;;;5019052;28;20619;-80
2022/07/19 02:49:03;;;;;;;14.20;8.85;;;;;;;;;;5018005;28;20035;-80
2022/07/19 02:51:28;;;;;;;12.75;7.43;;;;;;;;;;5003187;28;20998;-79
2022/07/19 02:53:53;;;;;;;11.30;8.30;;;;;;;;;;5020155;28;20327;-79
2022/07/19 02:56:18;;;;;;;11.90;7.83;;;;;;;;;;5019100;28;20286;-79
2022/07/19 02:58:43;;;;;;;11.07;8.60;;;;;;;;;;5022893;28;20413;-79
2022/07/19 03:01:09;;;;;;;13.70;8.48;;;;;;;;;;4997843;28;20802;-77
2022/07/19 03:03:43;;;;;;;9.40;8.07;;;;;;;;;;5001594;28;20490;-76
2022/07/19 03:06:09;;;;;;;12.07;8.32;;;;;;;;;;5017799;28;20762;-77
2022/07/19 03:08:34;;;;;;;15.52;9.38;;;;;;;;;;5016731;28;20060;-79
2022/07/19 03:10:59;;;;;;;11.80;8.43;;;;;;;;;;5024654;28;20079;-78
2022/07/19 03:13:25;;;;;;;13.50;9.30;;;;;;;;;;5019709;28;20033;-79
2022/07/19 03:15:50;;;;;;;10.80;8.50;;;;;;;;;;5019668;28;20053;-77
2022/07/19 03:18:15;;;;;;;15.13;9.50;;;;;;;;;;5001958;28;20029;-79
2022/07/19 03:20:40;;;;;;;12.98;9.38;;;;;;;;;;5019356;28;20034;-77
2022/07/19 03:23:05;;;;;;;11.93;8.63;;;;;;;;;;5020686;28;20155;-78
2022/07/19 03:25:31;;;;;;;14.23;9.85;;;;;;;;;;5019091;28;20279;-80
2022/07/19 03:27:56;;;;;;;15.18;9.30;;;;;;;;;;5021376;28;20030;-77
2022/07/19 03:30:21;;;;;;;11.15;8.77;;;;;;;;;;5019523;28;20033;-78
2022/07/19 03:32:47;;;;;;;11.32;8.52;;;;;;;;;;5019851;28;20379;-78
2022/07/19 03:35:13;;;;;;;14.95;9.15;;;;;;;;;;5020524;28;20279;-79
2022/07/19 03:37:38;;;;;;;13.23;8.45;;;;;;;;;;5021469;28;20029;-77
2022/07/19 03:40:04;;;;;;;11.20;8.10;;;;;;;;;;5016364;28;20029;-77
2022/07/19 03:42:29;;;;;;;11.23;8.80;;;;;;;;;;5017335;28;20033;-78
2022/07/19 03:44:54;;;;;;;10.53;7.97;;;;;;;;;;5018482;28;20029;-78
2022/07/19 03:47:20;;;;;;;9.20;7.60;;;;;;;;;;5021406;28;20286;-79
2022/07/19 03:49:45;;;;;;;11.82;7.95;;;;;;;;;;5017451;28;20411;-79
2022/07/19 03:52:11;;;;;;;12.88;8.25;;;;;;;;;;5000753;28;20067;-80
2022/07/19 03:54:36;;;;;;;12.23;8.10;;;;;;;;;;5019262;28;20116;-79
2022/07/19 03:57:01;;;;;;;14.35;8.68;;;;;;;;;;5018688;28;20033;-77
2022/07/19 03:59:30;;;;;;;12.18;7.78;;;;;;;;;;5005064;28;20025;-78
2022/07/19 04:01:55;;;;;;;8.68;7.00;;;;;;;;;;5016545;28;20026;-76
2022/07/19 04:04:20;;;;;;;20.05;9.02;;;;;;;;;;5020087;28;20474;-79
2022/07/19 04:06:46;;;;;;;13.07;7.63;;;;;;;;;;4999105;28;20064;-79
2022/07/19 04:09:11;;;;;;;14.52;9.27;;;;;;;;;;5022731;28;20128;-78
2022/07/19 04:11:37;;;;;;;11.70;8.93;;;;;;;;;;5014639;28;20033;-77
2022/07/19 04:14:02;;;;;;;16.30;9.27;;;;;;;;;;5021937;28;20083;-78
2022/07/19 04:16:27;;;;;;;12.77;8.93;;;;;;;;;;5016614;28;20064;-77
2022/07/19 04:18:52;;;;;;;16.10;9.95;;;;;;;;;;5018863;28;20397;-79
2022/07/19 04:21:18;;;;;;;12.40;8.85;;;;;;;;;;5017102;28;20525;-78
2022/07/19 04:23:43;;;;;;;14.97;8.73;;;;;;;;;;5020954;28;20029;-76
2022/07/19 04:26:08;;;;;;;11.85;8.68;;;;;;;;;;5016943;28;20294;-78
2022/07/19 04:28:34;;;;;;;12.98;8.82;;;;;;;;;;5000959;28;20100;-78
2022/07/19 04:30:59;;;;;;;11.23;8.88;;;;;;;;;;5019263;28;20095;-78
2022/07/19 04:33:25;;;;;;;16.00;8.60;;;;;;;;;;5013795;28;20063;-76
2022/07/19 04:35:51;;;;;;;12.98;8.75;;;;;;;;;;5003536;28;20037;-78
2022/07/19 04:38:17;;;;;;;13.57;9.13;;;;;;;;;;5016637;28;20642;-76
2022/07/19 04:40:42;;;;;;;11.40;9.00;;;;;;;;;;5001208;28;20045;-76
2022/07/19 04:43:07;;;;;;;13.52;8.93;;;;;;;;;;5016929;28;20475;-76
2022/07/19 04:45:32;;;;;;;11.13;8.27;;;;;;;;;;5022326;28;20038;-78
2022/07/19 04:47:58;;;;;;;11.27;8.57;;;;;;;;;;5006976;28;20029;-78
2022/07/19 04:50:23;;;;;;;15.00;9.82;;;;;;;;;;5015800;28;20029;-76
2022/07/19 04:52:48;;;;;;;11.10;8.07;;;;;;;;;;4999922;28;20136;-79
2022/07/19 04:55:14;;;;;;;12.93;8.52;;;;;;;;;;4998584;28;20653;-78
2022/07/19 04:57:39;;;;;;;11.93;8.10;;;;;;;;;;5015908;28;20037;-78
2022/07/19 05:00:08;;;;;;;9.43;7.72;;;;;;;;;;5020268;28;20029;-77
2022/07/19 05:02:34;;;;;;;10.10;7.68;;;;;;;;;;4984838;28;20034;-79
2022/07/19 05:04:59;;;;;;;10.90;7.80;;;;;;;;;;5017199;28;20127;-77
2022/07/19 05:07:24;;;;;;;14.23;8.27;;;;;;;;;;5020020;28;21564;-77
2022/07/19 05:09:49;;;;;;;10.40;8.30;;;;;;;;;;5019489;28;20049;-79
2022/07/19 05:12:15;;;;;;;11.52;9.05;;;;;;;;;;5003029;28;20029;-79
2022/07/19 05:14:40;;;;;;;10.90;8.77;;;;;;;;;;5015330;28;20048;-77
2022/07/19 05:17:06;;;;;;;11.82;9.10;;;;;;;;;;5012004;28;20477;-79
2022/07/19 05:19:31;;;;;;;12.20;8.40;;;;;;;;;;5016908;28;20034;-77
2022/07/19 05:21:56;;;;;;;8.30;7.22;;;;;;;;;;5016498;28;20033;-78
2022/07/19 05:24:21;;;;;;;8.35;6.78;;;;;;;;;;5017914;28;20113;-77
2022/07/19 05:26:46;;;;;;;11.38;7.28;;;;;;;;;;5017042;28;20037;-79
2022/07/19 05:29:12;;;;;;;11.10;8.35;;;;;;;;;;5012625;28;20037;-77
2022/07/19 05:31:37;;;;;;;12.60;7.05;;;;;;;;;;5015706;28;20029;-76
2022/07/19 05:34:02;;;;;;;11.13;8.35;;;;;;;;;;4997768;28;20462;-77
2022/07/19 05:36:28;;;;;;;14.18;8.63;;;;;;;;;;5020895;28;20045;-78
2022/07/19 05:38:53;;;;;;;11.52;8.82;;;;;;;;;;5017878;28;20262;-77
2022/07/19 05:41:21;;;;;;;13.45;8.32;;;;;;;;;;5018497;28;20678;-79
2022/07/19 05:43:47;;;;;;;11.05;8.57;;;;;;;;;;5018055;28;20030;-79
2022/07/19 05:46:12;;;;;;;9.57;8.35;;;;;;;;;;4996324;28;20072;-78
2022/07/19 05:48:37;;;;;;;12.03;9.10;;;;;;;;;;5015665;28;20491;-79
2022/07/19 05:51:02;;;;;;;14.27;8.60;;;;;;;;;;5001299;28;20302;-78
2022/07/19 05:53:28;;;;;;;14.00;8.55;;;;;;;;;;5023746;28;20067;-79
2022/07/19 05:55:53;;;;;;;13.82;8.43;;;;;;;;;;5021877;28;20405;-78
2022/07/19 05:58:18;;;;;;;13.10;8.93;;;;;;;;;;5021715;28;20096;-78
2022/07/19 06:01:17;;;;;;;11.68;7.72;;;;;;;;;;5018880;28;20099;-79
2022/07/19 06:03:29;;;;;;;12.43;9.27;;;;;;;;;;5016160;28;20033;-77
2022/07/19 06:05:55;;;;;;;13.25;9.32;;;;;;;;;;5018216;28;20021;-77
2022/07/19 06:08:20;;;;;;;12.18;9.27;;;;;;;;;;5016896;28;20119;-78
2022/07/19 06:10:45;;;;;;;11.75;8.13;;;;;;;;;;5020398;28;20041;-79
2022/07/19 06:13:10;;;;;;;12.83;8.70;;;;;;;;;;4997747;28;20079;-79
2022/07/19 06:15:36;;;;;;;15.82;8.38;;;;;;;;;;5021336;28;20508;-78
2022/07/19 06:18:02;;;;;;;8.68;6.38;;;;;;;;;;5015429;28;20049;-80
2022/07/19 06:20:27;;;;;;;11.55;8.82;;;;;;;;;;5017183;28;20033;-80
2022/07/19 06:22:52;;;;;;;11.13;7.20;;;;;;;;;;5012308;28;20610;-79
2022/07/19 06:25:17;;;;;;;9.50;6.27;;;;;;;;;;5017175;28;20789;-78
2022/07/19 06:27:43;;;;;;;9.95;6.32;;;;;;;;;;5021813;28;20282;-79
2022/07/19 06:30:08;;;;;;;9.33;7.13;;;;;;;;;;5014375;28;20161;-79
2022/07/19 06:32:34;;;;;;;7.90;5.25;;;;;;;;;;5018694;28;20286;-80
2022/07/19 06:35:00;;;;;;;7.78;6.15;;;;;;;;;;4994913;28;20471;-79
2022/07/19 06:37:25;;;;;;;8.38;6.15;;;;;;;;;;5018722;28;20029;-80
2022/07/19 06:39:50;;;;;;;14.77;8.00;;;;;;;;;;5000073;28;20039;-78
2022/07/19 06:42:15;;;;;;;7.13;5.30;;;;;;;;;;5022247;28;20030;-78
2022/07/19 06:44:40;;;;;;;10.65;7.40;;;;;;;;;;5005652;28;20113;-79
2022/07/19 06:47:06;;;;;;;14.10;7.57;;;;;;;;;;5019838;28;20018;-79
2022/07/19 06:49:31;;;;;;;12.35;8.27;;;;;;;;;;5000504;28;20026;-81
2022/07/19 06:51:56;;;;;;;10.93;6.13;;;;;;;;;;5025807;28;20068;-80
2022/07/19 06:54:21;;;;;;;9.45;7.20;;;;;;;;;;5012524;28;20274;-80
2022/07/19 06:56:47;;;;;;;8.88;5.32;;;;;;;;;;5022383;28;20026;-79
2022/07/19 06:59:12;;;;;;;9.60;6.53;;;;;;;;;;5036886;28;20037;-79
2022/07/19 07:01:37;;;;;;;11.68;7.78;;;;;;;;;;5004941;28;20128;-79
2022/07/19 07:04:03;;;;;;;12.25;7.78;;;;;;;;;;5018869;28;20021;-80
2022/07/19 07:06:28;;;;;;;8.18;5.22;;;;;;;;;;5002319;28;20036;-80
2022/07/19 07:08:53;;;;;;;9.67;5.70;;;;;;;;;;5020935;28;20037;-79
2022/07/19 07:11:18;;;;;;;12.17;7.63;;;;;;;;;;5005876;28;20309;-78
2022/07/19 07:13:43;;;;;;;11.83;7.47;;;;;;;;;;5022287;28;20393;-80
2022/07/19 07:16:09;;;;;;;9.63;7.40;;;;;;;;;;5026314;28;20295;-79
2022/07/19 07:18:34;;;;;;;11.85;6.57;;;;;;;;;;5010336;28;20037;-80
2022/07/19 07:21:03;;;;;;;8.82;5.47;;;;;;;;;;5006071;28;20455;-81
2022/07/19 07:23:29;;;;;;;11.98;7.50;;;;;;;;;;5024970;28;20037;-81
2022/07/19 07:25:54;;;;;;;11.35;6.05;;;;;;;;;;5026816;28;20025;-81
2022/07/19 07:28:19;;;;;;;9.00;7.23;;;;;;;;;;5028931;28;20039;-80
2022/07/19 07:30:44;;;;;;;7.28;5.13;;;;;;;;;;5006352;28;20343;-82
2022/07/19 07:33:10;;;;;;;7.65;5.63;;;;;;;;;;5024465;28;20037;-79
2022/07/19 07:35:35;;;;;;;8.75;5.80;;;;;;;;;;5025545;28;20037;-81
2022/07/19 07:38:00;;;;;;;16.45;6.25;;;;;;;;;;5023388;28;20074;-80
2022/07/19 07:40:25;;;;;;;10.30;5.75;;;;;;;;;;5007589;28;20029;-80
2022/07/19 07:42:51;;;;;;;8.03;5.03;;;;;;;;;;5031216;28;20033;-80
2022/07/19 07:45:16;;;;;;;9.43;5.40;;;;;;;;;;5028642;28;20270;-80
2022/07/19 07:47:41;;;;;;;8.60;5.50;;;;;;;;;;5010131;28;20032;-80
2022/07/19 07:50:08;;;;;;;16.85;6.95;;;;;;;;;;5008339;28;20382;-78
2022/07/19 07:52:33;;;;;;;9.88;6.43;;;;;;;;;;5014406;28;20691;-79
2022/07/19 07:54:59;;;;;;;8.67;5.73;;;;;;;;;;5025709;28;20041;-80
2022/07/19 07:57:24;;;;;;;7.65;5.72;;;;;;;;;;5024935;28;20278;-78
2022/07/19 07:59:49;;;;;;;8.63;5.30;;;;;;;;;;5023824;28;20029;-79
2022/07/19 08:02:14;;;;;;;10.87;5.53;;;;;;;;;;5028747;28;20491;-80
2022/07/19 08:04:40;;;;;;;9.50;6.70;;;;;;;;;;5010269;28;20753;-79
2022/07/19 08:07:05;;;;;;;7.53;5.05;;;;;;;;;;5026480;28;20333;-78
2022/07/19 08:09:31;;;;;;;9.32;6.28;;;;;;;;;;5020862;28;20088;-79
2022/07/19 08:11:56;;;;;;;8.23;5.55;;;;;;;;;;5010425;28;20068;-81
2022/07/19 08:14:21;;;;;;;16.90;6.03;;;;;;;;;;5023491;28;20343;-81
2022/07/19 08:16:46;;;;;;;8.55;5.28;;;;;;;;;;5024533;28;20057;-80
2022/07/19 08:19:12;;;;;;;8.43;6.10;;;;;;;;;;5002495;28;20064;-80
2022/07/19 08:21:37;;;;;;;9.50;5.50;;;;;;;;;;5023839;28;20279;-80
2022/07/19 08:24:02;;;;;;;10.18;5.57;;;;;;;;;;5005188;28;20094;-78
2022/07/19 08:26:30;;;;;;;9.32;5.30;;;;;;;;;;5003716;28;20052;-77
2022/07/19 08:28:55;;;;;;;9.93;5.25;;;;;;;;;;5005095;28;21167;-78
2022/07/19 08:31:20;;;;;;;9.17;5.40;;;;;;;;;;5002195;28;20056;-81
2022/07/19 08:33:45;;;;;;;8.88;5.93;;;;;;;;;;5004854;28;20278;-80
2022/07/19 08:36:14;;;;;;;12.50;5.75;;;;;;;;;;5022864;28;20379;-79
2022/07/19 08:38:39;;;;;;;13.00;5.35;;;;;;;;;;5016304;28;20029;-78
2022/07/19 08:41:05;;;;;;;9.38;5.65;;;;;;;;;;5024754;28;20026;-80
2022/07/19 08:43:30;;;;;;;9.75;6.22;;;;;;;;;;5008321;28;20022;-79
2022/07/19 08:46:00;;;;;;;13.68;5.88;;;;;;;;;;5011331;28;20037;-78
2022/07/19 08:48:26;;;;;;;10.98;5.55;;;;;;;;;;5021517;28;20037;-80
2022/07/19 08:50:51;;;;;;;6.53;5.28;;;;;;;;;;5002184;28;20119;-78
2022/07/19 08:53:18;;;;;;;8.82;4.65;;;;;;;;;;5004207;28;20032;-78
2022/07/19 08:55:43;;;;;;;9.07;4.50;;;;;;;;;;5020306;28;20035;-78
2022/07/19 08:58:08;;;;;;;8.07;4.30;;;;;;;;;;5001488;28;20025;-78
2022/07/19 09:00:33;;;;;;;7.40;4.38;;;;;;;;;;5006168;28;20243;-78
2022/07/19 09:02:59;;;;;;;8.80;4.35;;;;;;;;;;5018326;28;20264;-78
2022/07/19 09:05:25;;;;;;;9.40;4.70;;;;;;;;;;5021810;28;20024;-80
2022/07/19 09:08:05;;;;;;;10.07;4.10;;;;;;;;;;5025975;28;20057;-86
2022/07/19 09:10:31;;;;;;;7.57;4.05;;;;;;;;;;5019652;28;20448;-84
2022/07/19 09:13:01;;;;;;;12.65;5.70;;;;;;;;;;5020317;28;20049;-84
2022/07/19 09:15:55;;;;;;;7.03;4.53;;;;;;;;;;5016166;28;20045;-79
2022/07/19 09:18:23;;;;;;;5.00;3.75;;;;;;;;;;5004112;28;21748;-82
2022/07/19 09:20:50;;;;;;;6.75;4.45;;;;;;;;;;5001256;28;20469;-79
2022/07/19 09:23:15;;;;;;;9.95;3.85;;;;;;;;;;5023599;28;20060;-78
2022/07/19 09:25:42;;;;;;;4.82;3.60;;;;;;;;;;5020339;28;20520;-78
2022/07/19 09:28:07;;;;;;;6.03;3.22;;;;;;;;;;5005161;28;20519;-79
2022/07/19 09:30:43;;;;;;;12.57;3.58;;;;;;;;;;5022502;28;20036;-80
2022/07/19 09:33:10;;;;;;;6.93;3.78;;;;;;;;;;5002430;28;20028;-78
2022/07/19 09:35:37;;;;;;;4.65;3.90;;;;;;;;;;4999360;28;20045;-79
2022/07/19 09:38:15;;;;;;;7.40;3.83;;;;;;;;;;5022135;28;20022;-83
2022/07/19 09:40:41;;;;;;;8.20;3.90;;;;;;;;;;5015314;28;20033;-81
2022/07/19 09:43:06;;;;;;;6.95;3.83;;;;;;;;;;5022492;28;20026;-83
2022/07/19 09:45:32;;;;;;;7.00;3.63;;;;;;;;;;5017569;28;20045;-82
2022/07/19 09:48:00;;;;;;;13.13;3.90;;;;;;;;;;5005890;28;20813;-83
2022/07/19 09:50:25;;;;;;;13.68;3.63;;;;;;;;;;5009639;28;20032;-84
2022/07/19 09:52:51;;;;;;;6.72;3.55;;;;;;;;;;5029522;28;20091;-80
2022/07/19 09:55:17;;;;;;;6.18;3.75;;;;;;;;;;5017911;28;20030;-84
2022/07/19 09:57:44;;;;;;;7.88;3.80;;;;;;;;;;5028058;28;20488;-84
2022/07/19 10:00:10;;;;;;;5.70;4.10;;;;;;;;;;5028877;28;20022;-84
2022/07/19 10:02:38;;;;;;;6.22;3.72;;;;;;;;;;5027249;28;20045;-84
2022/07/19 10:05:07;;;;;;;7.07;3.33;;;;;;;;;;5024878;28;20028;-81
2022/07/19 10:07:33;;;;;;;11.05;4.30;;;;;;;;;;5028153;28;20056;-82
2022/07/19 10:10:03;;;;;;;6.38;3.33;;;;;;;;;;5030104;28;20033;-84
2022/07/19 10:12:28;;;;;;;6.07;4.28;;;;;;;;;;5020703;28;20378;-84
2022/07/19 10:14:54;;;;;;;6.97;3.63;;;;;;;;;;5001476;28;20117;-85
2022/07/19 10:17:20;;;;;;;8.70;3.10;;;;;;;;;;5021069;28;20030;-81
2022/07/19 10:19:48;;;;;;;3.80;3.40;;;;;;;;;;5020902;28;20397;-85
2022/07/19 10:22:18;;;;;;;8.38;4.25;;;;;;;;;;5004775;28;20283;-81
2022/07/19 10:24:45;;;;;;;5.75;3.53;;;;;;;;;;5001899;28;20033;-80
2022/07/19 10:27:10;;;;;;;7.80;4.18;;;;;;;;;;5004602;28;20029;-84
2022/07/19 10:29:35;;;;;;;5.47;3.03;;;;;;;;;;5004457;28;20029;-85
2022/07/19 10:32:05;;;;;;;7.43;3.90;;;;;;;;;;5022590;28;20036;-86
2022/07/19 10:34:30;;;;;;;4.38;2.80;;;;;;;;;;5021144;28;20360;-85
2022/07/19 10:36:56;;;;;;;6.35;3.13;;;;;;;;;;5018446;28;20405;-81
2022/07/19 10:39:35;;;;;;;7.95;3.78;;;;;;;;;;5008212;28;20036;-86
2022/07/19 10:42:06;;;;;;;5.57;3.15;;;;;;;;;;5030695;28;20033;-83
2022/07/19 10:44:32;;;;;;;8.10;3.65;;;;;;;;;;5022206;28;20075;-81
2022/07/19 10:46:58;;;;;;;5.22;2.80;;;;;;;;;;5022816;28;20017;-85
2022/07/19 10:49:46;;;;;;;6.82;3.05;;;;;;;;;;5021099;28;20669;-81
2022/07/19 10:52:29;;;;;;;4.85;3.42;;;;;;;;;;5025540;28;20033;-87
2022/07/19 10:55:13;;;;;;;7.45;3.65;;;;;;;;;;5018241;28;20414;-87
2022/07/19 10:57:38;;;;;;;4.38;3.22;;;;;;;;;;5026032;28;20036;-81
2022/07/19 11:00:16;;;;;;;5.82;2.95;;;;;;;;;;5006211;28;20030;-86
2022/07/19 11:02:45;;;;;;;7.00;2.80;;;;;;;;;;5021043;28;20033;-81
2022/07/19 11:05:23;;;;;;;6.75;3.40;;;;;;;;;;5026111;28;20025;-81
2022/07/19 11:07:52;;;;;;;6.68;2.88;;;;;;;;;;5026995;28;20045;-80
2022/07/19 11:10:25;;;;;;;5.80;3.00;;;;;;;;;;5022194;28;20485;-84
2022/07/19 11:12:51;;;;;;;7.10;3.47;;;;;;;;;;5023127;28;20026;-80
2022/07/19 11:15:16;;;;;;;4.82;3.53;;;;;;;;;;5026972;28;20051;-81
2022/07/19 11:17:55;;;;;;;6.65;3.15;;;;;;;;;;4997392;28;20068;-85
2022/07/19 11:20:44;;;;;;;5.70;3.20;;;;;;;;;;5003922;28;20049;-85
2022/07/19 11:23:16;;;;;;;17.27;3.70;;;;;;;;;;5011588;28;20038;-85
2022/07/19 11:25:41;;;;;;;7.45;3.10;;;;;;;;;;5010140;28;20056;-83
2022/07/19 11:28:18;;;;;;;5.03;3.03;;;;;;;;;;5020588;28;20485;-80
2022/07/19 11:30:43;;;;;;;5.95;3.20;;;;;;;;;;5020381;28;20037;-79
2022/07/19 11:33:09;;;;;;;6.20;3.10;;;;;;;;;;5025697;28;20036;-84
2022/07/19 11:35:34;;;;;;;5.30;3.43;;;;;;;;;;5024087;28;20032;-80
2022/07/19 11:38:00;;;;;;;6.30;3.05;;;;;;;;;;5005050;28;20283;-80
2022/07/19 11:40:31;;;;;;;6.28;3.05;;;;;;;;;;5021979;28;20040;-80
2022/07/19 11:42:56;;;;;;;8.40;3.25;;;;;;;;;;5020661;28;20036;-84
2022/07/19 11:45:23;;;;;;;6.32;2.92;;;;;;;;;;5021979;28;20025;-85
2022/07/19 11:47:49;;;;;;;7.43;3.50;;;;;;;;;;5022072;28;20073;-80
2022/07/19 11:50:16;;;;;;;4.40;2.92;;;;;;;;;;5020801;28;20493;-80
2022/07/19 11:52:45;;;;;;;16.10;4.95;;;;;;;;;;5021025;28;20029;-81
2022/07/19 11:55:10;;;;;;;11.70;4.30;;;;;;;;;;5014950;28;20099;-84
2022/07/19 11:57:36;;;;;;;4.55;2.40;;;;;;;;;;5018944;28;20029;-81
2022/07/19 12:00:02;;;;;;;12.70;2.95;;;;;;;;;;5020452;28;20040;-84
2022/07/19 12:02:27;;;;;;;4.47;2.70;;;;;;;;;;5025722;28;20030;-83
2022/07/19 12:04:53;;;;;;;9.05;2.47;;;;;;;;;;5004619;28;20512;-81
2022/07/19 12:07:18;;;;;;;4.20;2.78;;;;;;;;;;5006327;28;20049;-79
2022/07/19 12:09:44;;;;;;;5.60;2.75;;;;;;;;;;5019087;28;20584;-82
2022/07/19 12:12:14;;;;;;;6.80;3.22;;;;;;;;;;5017219;28;20131;-84
2022/07/19 12:14:40;;;;;;;7.63;3.30;;;;;;;;;;5008357;28;20017;-87
2022/07/19 12:17:12;;;;;;;5.95;3.40;;;;;;;;;;5021507;28;20033;-82
2022/07/19 12:19:38;;;;;;;10.57;3.53;;;;;;;;;;5023816;28;20795;-81
2022/07/19 12:22:03;;;;;;;5.65;3.08;;;;;;;;;;5003131;28;20093;-81
2022/07/19 12:24:30;;;;;;;8.40;4.00;;;;;;;;;;5020489;28;20017;-83
2022/07/19 12:26:59;;;;;;;5.57;3.38;;;;;;;;;;5026376;28;20053;-85
2022/07/19 12:29:31;;;;;;;6.28;2.60;;;;;;;;;;5026651;28;20497;-87
2022/07/19 12:32:00;;;;;;;5.13;2.97;;;;;;;;;;5027754;28;20037;-85
2022/07/19 12:34:25;;;;;;;4.22;2.70;;;;;;;;;;5019581;28;20505;-78
2022/07/19 12:36:51;;;;;;;8.05;3.60;;;;;;;;;;5016393;28;20037;-80
2022/07/19 12:39:17;;;;;;;6.25;2.78;;;;;;;;;;5024582;28;20025;-83
2022/07/19 12:42:16;;;;;;;7.40;4.05;;;;;;;;;;5025603;28;20327;-85
2022/07/19 12:44:41;;;;;;;9.15;4.10;;;;;;;;;;5010988;28;20064;-85
2022/07/19 12:47:06;;;;;;;5.88;3.50;;;;;;;;;;5024119;28;20072;-80
2022/07/19 12:49:42;;;;;;;8.05;3.70;;;;;;;;;;5023504;28;20095;-81
2022/07/19 12:52:07;;;;;;;9.43;3.33;;;;;;;;;;5020094;28;20033;-86
2022/07/19 12:54:33;;;;;;;7.18;3.38;;;;;;;;;;5005942;28;20044;-80
2022/07/19 12:56:58;;;;;;;6.90;3.93;;;;;;;;;;5011498;28;20445;-79
2022/07/19 12:59:38;;;;;;;9.20;3.10;;;;;;;;;;5006805;28;20272;-87
2022/07/19 13:02:03;;;;;;;5.40;2.83;;;;;;;;;;5018657;28;20729;-85
2022/07/19 13:04:29;;;;;;;8.13;3.38;;;;;;;;;;5020338;28;20114;-86
2022/07/19 13:06:57;;;;;;;8.60;3.70;;;;;;;;;;5018566;28;20037;-81
2022/07/19 13:09:22;;;;;;;5.68;2.70;;;;;;;;;;5017919;28;20583;-81
2022/07/19 13:11:47;;;;;;;5.77;3.43;;;;;;;;;;5021512;28;20041;-79
2022/07/19 13:14:13;;;;;;;7.38;3.53;;;;;;;;;;5020471;28;20285;-83
2022/07/19 13:16:38;;;;;;;6.43;3.25;;;;;;;;;;5004641;28;20037;-84
2022/07/19 13:19:03;;;;;;;5.50;2.97;;;;;;;;;;5018118;28;20026;-80
2022/07/19 13:21:29;;;;;;;6.90;3.38;;;;;;;;;;5008962;28;20087;-79
2022/07/19 13:23:54;;;;;;;6.43;3.30;;;;;;;;;;5019278;28;20401;-81
2022/07/19 13:26:19;;;;;;;10.98;3.78;;;;;;;;;;5021547;28;20028;-80
2022/07/19 13:28:45;;;;;;;6.47;3.92;;;;;;;;;;5016453;28;20642;-86
2022/07/19 13:31:10;;;;;;;5.95;3.22;;;;;;;;;;5004728;28;20064;-79
2022/07/19 13:33:35;;;;;;;5.30;3.00;;;;;;;;;;5002761;28;20037;-80
2022/07/19 13:36:01;;;;;;;4.93;3.77;;;;;;;;;;5020612;28;20095;-81
2022/07/19 13:38:26;;;;;;;5.53;3.00;;;;;;;;;;5000196;28;20463;-84
2022/07/19 13:40:51;;;;;;;6.15;3.85;;;;;;;;;;4999372;28;20018;-82
2022/07/19 13:43:16;;;;;;;4.23;2.77;;;;;;;;;;5018593;28;20465;-85
2022/07/19 13:45:41;;;;;;;5.83;3.27;;;;;;;;;;5017517;28;20737;-79
2022/07/19 13:48:07;;;;;;;8.87;3.53;;;;;;;;;;5007973;28;20266;-81
2022/07/19 13:50:32;;;;;;;3.17;2.87;;;;;;;;;;4993679;28;20286;-86
2022/07/19 13:52:58;;;;;;;3.67;2.50;;;;;;;;;;5022209;28;20270;-79
2022/07/19 13:55:24;;;;;;;8.82;3.00;;;;;;;;;;4997563;28;20042;-86
2022/07/19 13:57:49;;;;;;;4.07;3.20;;;;;;;;;;5020032;28;20051;-78
2022/07/19 14:00:17;;;;;;;11.03;3.47;;;;;;;;;;5016133;28;20489;-80
2022/07/19 14:02:42;;;;;;;8.25;3.05;;;;;;;;;;4995033;28;20274;-84
2022/07/19 14:05:08;;;;;;;5.00;3.55;;;;;;;;;;5022890;28;20034;-78
2022/07/19 14:07:33;;;;;;;5.10;3.22;;;;;;;;;;5022132;28;20437;-79
2022/07/19 14:09:59;;;;;;;5.10;3.00;;;;;;;;;;5003828;28;20025;-79
2022/07/19 14:12:24;;;;;;;5.80;3.88;;;;;;;;;;5001436;28;20040;-81
2022/07/19 14:14:49;;;;;;;8.60;4.07;;;;;;;;;;5018910;28;20021;-80
2022/07/19 14:17:16;;;;;;;6.53;4.23;;;;;;;;;;5023478;28;20282;-79
2022/07/19 14:19:42;;;;;;;6.53;3.90;;;;;;;;;;5002416;28;20821;-84
2022/07/19 14:22:07;;;;;;;6.65;4.03;;;;;;;;;;5004463;28;20025;-84
2022/07/19 14:24:32;;;;;;;6.60;3.83;;;;;;;;;;5022320;28;20927;-85
2022/07/19 14:26:57;;;;;;;7.50;3.55;;;;;;;;;;5016804;28;20061;-84
2022/07/19 14:29:23;;;;;;;5.87;4.30;;;;;;;;;;5013914;28;20049;-79
2022/07/19 14:31:49;;;;;;;7.00;3.70;;;;;;;;;;4995536;28;20278;-79